Argenta, Texas
Current Conditions -  °F | °C
As of 8:15 AM on Monday 20 Oct 2014 (Local Time) from KRBO Reporting Station
Haze Haze  
Wind Chill: 71°   Ceiling: Unl
Heat Index: 71°   Visibility: 5mi
Dew Point: 69°   Wind: 7mph
Humidity: 95%   Direction: 20°NNE
Pressure: 29.98"   Gusts: NA
Location:  28.0654°N, 97.7489°W
Report Text: KRBO 201315Z AUTO 02006KT 5SM BR SCT025 22/21 A2998 RMK AO2 T02170208
Loading
Personal Weather Stations






























Interactive Weather Map New forecast layout! Learn more

10-Day Weather Forecast

Advertisements
Track Severe Weather on mobile